sensor_id;sensor_type;location;lat;lon;timestamp;pressure;altitude;pressure_sealevel;temperature;humidity
32330;BME280;18807;52.434;13.238;2023-04-20T00:07:00;101644.13;;;6.71;100.00
32330;BME280;18807;52.434;13.238;2023-04-20T00:14:35;101646.22;;;6.78;100.00
32330;BME280;18807;52.434;13.238;2023-04-20T00:22:10;101644.25;;;6.74;100.00
32330;BME280;18807;52.434;13.238;2023-04-20T00:29:44;101641.31;;;6.68;100.00
32330;BME280;18807;52.434;13.238;2023-04-20T00:37:19;101646.09;;;6.75;100.00
32330;BME280;18807;52.434;13.238;2023-04-20T00:44:53;101639.94;;;6.76;100.00
32330;BME280;18807;52.434;13.238;2023-04-20T00:52:29;101634.81;;;6.80;100.00
32330;BME280;18807;52.434;13.238;2023-04-20T01:00:05;101618.97;;;6.82;100.00
32330;BME280;18807;52.434;13.238;2023-04-20T01:07:40;101615.84;;;6.71;100.00
32330;BME280;18807;52.434;13.238;2023-04-20T01:15:15;101623.53;;;6.65;100.00
32330;BME280;18807;52.434;13.238;2023-04-20T01:22:53;101627.78;;;6.62;100.00
32330;BME280;18807;52.434;13.238;2023-04-20T01:30:27;101623.13;;;6.56;100.00
32330;BME280;18807;52.434;13.238;2023-04-20T01:38:03;101625.69;;;6.55;100.00
32330;BME280;18807;52.434;13.238;2023-04-20T01:45:37;101624.09;;;6.58;100.00
32330;BME280;18807;52.434;13.238;2023-04-20T01:53:12;101623.97;;;6.55;100.00
32330;BME280;18807;52.434;13.238;2023-04-20T02:00:46;101612.22;;;6.50;100.00
32330;BME280;18807;52.434;13.238;2023-04-20T02:08:22;101617.94;;;6.59;100.00
32330;BME280;18807;52.434;13.238;2023-04-20T02:15:56;101615.16;;;6.56;100.00
32330;BME280;18807;52.434;13.238;2023-04-20T02:23:31;101614.06;;;6.51;100.00
32330;BME280;18807;52.434;13.238;2023-04-20T02:31:05;101631.66;;;6.49;100.00
32330;BME280;18807;52.434;13.238;2023-04-20T02:38:41;101629.06;;;6.51;100.00
32330;BME280;18807;52.434;13.238;2023-04-20T02:46:16;101628.94;;;6.48;100.00
32330;BME280;18807;52.434;13.238;2023-04-20T02:53:52;101625.16;;;6.43;100.00
32330;BME280;18807;52.434;13.238;2023-04-20T03:01:25;101632.16;;;6.41;100.00
32330;BME280;18807;52.434;13.238;2023-04-20T03:09:01;101634.75;;;6.39;100.00
32330;BME280;18807;52.434;13.238;2023-04-20T03:16:35;101632.22;;;6.42;100.00
32330;BME280;18807;52.434;13.238;2023-04-20T03:24:11;101627.72;;;6.41;100.00
32330;BME280;18807;52.434;13.238;2023-04-20T03:31:45;101631.31;;;6.42;100.00
32330;BME280;18807;52.434;13.238;2023-04-20T03:39:21;101649.16;;;6.46;100.00
32330;BME280;18807;52.434;13.238;2023-04-20T03:46:55;101645.63;;;6.45;100.00
32330;BME280;18807;52.434;13.238;2023-04-20T03:54:30;101647.44;;;6.46;100.00
32330;BME280;18807;52.434;13.238;2023-04-20T04:02:04;101632.56;;;6.50;100.00
32330;BME280;18807;52.434;13.238;2023-04-20T04:09:41;101643.25;;;6.51;100.00
32330;BME280;18807;52.434;13.238;2023-04-20T04:17:15;101638.91;;;6.53;100.00
32330;BME280;18807;52.434;13.238;2023-04-20T04:24:50;101655.81;;;6.55;100.00
32330;BME280;18807;52.434;13.238;2023-04-20T04:32:43;101668.94;;;6.52;100.00
32330;BME280;18807;52.434;13.238;2023-04-20T04:40:19;101660.06;;;6.52;100.00
32330;BME280;18807;52.434;13.238;2023-04-20T04:47:53;101669.50;;;6.45;100.00
32330;BME280;18807;52.434;13.238;2023-04-20T04:55:30;101672.25;;;6.47;100.00
32330;BME280;18807;52.434;13.238;2023-04-20T05:03:04;101681.22;;;6.50;100.00
32330;BME280;18807;52.434;13.238;2023-04-20T05:10:40;101670.81;;;6.55;100.00
32330;BME280;18807;52.434;13.238;2023-04-20T05:18:31;101680.78;;;6.60;100.00
32330;BME280;18807;52.434;13.238;2023-04-20T05:26:24;101692.25;;;6.59;100.00
32330;BME280;18807;52.434;13.238;2023-04-20T05:34:16;101691.63;;;6.65;100.00
32330;BME280;18807;52.434;13.238;2023-04-20T05:41:52;101695.13;;;6.64;100.00
32330;BME280;18807;52.434;13.238;2023-04-20T05:49:26;101700.16;;;6.58;100.00
32330;BME280;18807;52.434;13.238;2023-04-20T05:57:02;101703.09;;;6.64;100.00
32330;BME280;18807;52.434;13.238;2023-04-20T06:04:37;101704.91;;;6.65;100.00
32330;BME280;18807;52.434;13.238;2023-04-20T06:12:13;101719.38;;;6.71;100.00
32330;BME280;18807;52.434;13.238;2023-04-20T06:19:47;101717.41;;;6.67;100.00
32330;BME280;18807;52.434;13.238;2023-04-20T06:27:23;101726.56;;;6.74;100.00
32330;BME280;18807;52.434;13.238;2023-04-20T06:34:58;101721.53;;;6.80;100.00
32330;BME280;18807;52.434;13.238;2023-04-20T06:42:34;101729.63;;;6.83;100.00
32330;BME280;18807;52.434;13.238;2023-04-20T06:50:09;101729.75;;;6.86;100.00
32330;BME280;18807;52.434;13.238;2023-04-20T06:57:44;101743.53;;;6.96;100.00
32330;BME280;18807;52.434;13.238;2023-04-20T07:05:19;101735.13;;;7.06;100.00
32330;BME280;18807;52.434;13.238;2023-04-20T07:12:54;101740.31;;;7.22;100.00
32330;BME280;18807;52.434;13.238;2023-04-20T07:20:28;101741.25;;;7.24;100.00
32330;BME280;18807;52.434;13.238;2023-04-20T07:28:04;101743.44;;;7.33;100.00
32330;BME280;18807;52.434;13.238;2023-04-20T07:35:38;101755.00;;;7.35;100.00
32330;BME280;18807;52.434;13.238;2023-04-20T07:43:14;101745.50;;;7.40;100.00
32330;BME280;18807;52.434;13.238;2023-04-20T07:50:48;101757.47;;;7.51;100.00
32330;BME280;18807;52.434;13.238;2023-04-20T07:58:23;101769.38;;;7.59;100.00
32330;BME280;18807;52.434;13.238;2023-04-20T08:05:58;101761.91;;;7.71;100.00
32330;BME280;18807;52.434;13.238;2023-04-20T08:13:34;101755.22;;;7.80;100.00
32330;BME280;18807;52.434;13.238;2023-04-20T08:21:08;101761.81;;;8.10;100.00
32330;BME280;18807;52.434;13.238;2023-04-20T08:28:44;101772.13;;;8.46;100.00
32330;BME280;18807;52.434;13.238;2023-04-20T08:36:18;101782.63;;;8.63;100.00
32330;BME280;18807;52.434;13.238;2023-04-20T08:43:54;101769.31;;;8.63;100.00
32330;BME280;18807;52.434;13.238;2023-04-20T08:51:28;101775.69;;;8.68;100.00
32330;BME280;18807;52.434;13.238;2023-04-20T08:59:05;101775.88;;;8.73;100.00
32330;BME280;18807;52.434;13.238;2023-04-20T09:06:45;101775.94;;;8.74;100.00
32330;BME280;18807;52.434;13.238;2023-04-20T09:14:20;101776.03;;;8.77;100.00
32330;BME280;18807;52.434;13.238;2023-04-20T09:21:56;101769.78;;;8.75;100.00
32330;BME280;18807;52.434;13.238;2023-04-20T09:29:32;101774.00;;;8.70;100.00
32330;BME280;18807;52.434;13.238;2023-04-20T09:37:08;101773.22;;;8.73;100.00
32330;BME280;18807;52.434;13.238;2023-04-20T09:44:43;101767.94;;;8.74;100.00
32330;BME280;18807;52.434;13.238;2023-04-20T09:52:18;101761.38;;;8.88;100.00
32330;BME280;18807;52.434;13.238;2023-04-20T09:59:54;101745.75;;;8.97;100.00
32330;BME280;18807;52.434;13.238;2023-04-20T10:07:32;101756.00;;;9.10;100.00
32330;BME280;18807;52.434;13.238;2023-04-20T10:15:09;101746.22;;;9.34;100.00
32330;BME280;18807;52.434;13.238;2023-04-20T10:22:44;101749.22;;;9.43;100.00
32330;BME280;18807;52.434;13.238;2023-04-20T10:30:21;101762.66;;;9.46;100.00
32330;BME280;18807;52.434;13.238;2023-04-20T10:37:55;101748.03;;;9.60;100.00
32330;BME280;18807;52.434;13.238;2023-04-20T10:45:34;101745.22;;;9.82;100.00
32330;BME280;18807;52.434;13.238;2023-04-20T10:53:17;101743.19;;;10.00;100.00
32330;BME280;18807;52.434;13.238;2023-04-20T11:01:00;101718.91;;;10.20;100.00
32330;BME280;18807;52.434;13.238;2023-04-20T11:08:36;101717.94;;;10.44;100.00
32330;BME280;18807;52.434;13.238;2023-04-20T11:16:13;101726.13;;;10.50;100.00
32330;BME280;18807;52.434;13.238;2023-04-20T11:23:48;101731.44;;;10.49;100.00
32330;BME280;18807;52.434;13.238;2023-04-20T11:31:24;101730.13;;;10.64;100.00
32330;BME280;18807;52.434;13.238;2023-04-20T11:39:06;101725.97;;;10.74;100.00
32330;BME280;18807;52.434;13.238;2023-04-20T11:46:42;101714.59;;;10.81;100.00
32330;BME280;18807;52.434;13.238;2023-04-20T11:54:16;101688.72;;;10.80;100.00
32330;BME280;18807;52.434;13.238;2023-04-20T12:01:54;101694.38;;;10.90;100.00
32330;BME280;18807;52.434;13.238;2023-04-20T12:09:30;101684.13;;;11.07;100.00
32330;BME280;18807;52.434;13.238;2023-04-20T12:17:09;101678.78;;;11.39;100.00
32330;BME280;18807;52.434;13.238;2023-04-20T12:24:43;101678.34;;;11.55;100.00
32330;BME280;18807;52.434;13.238;2023-04-20T12:32:18;101671.81;;;11.78;100.00
32330;BME280;18807;52.434;13.238;2023-04-20T12:39:52;101668.66;;;11.96;100.00
32330;BME280;18807;52.434;13.238;2023-04-20T12:47:28;101648.56;;;12.13;100.00
32330;BME280;18807;52.434;13.238;2023-04-20T12:55:02;101641.97;;;12.38;100.00
32330;BME280;18807;52.434;13.238;2023-04-20T13:02:37;101630.13;;;12.68;100.00
32330;BME280;18807;52.434;13.238;2023-04-20T13:10:12;101637.94;;;12.99;95.71
32330;BME280;18807;52.434;13.238;2023-04-20T13:17:47;101626.72;;;13.21;95.51
32330;BME280;18807;52.434;13.238;2023-04-20T13:25:21;101620.91;;;13.48;90.67
32330;BME280;18807;52.434;13.238;2023-04-20T13:32:56;101605.69;;;14.03;90.10
32330;BME280;18807;52.434;13.238;2023-04-20T13:40:31;101601.75;;;14.40;83.71
32330;BME280;18807;52.434;13.238;2023-04-20T13:48:06;101603.22;;;14.19;80.88
32330;BME280;18807;52.434;13.238;2023-04-20T13:55:40;101596.09;;;14.21;81.45
32330;BME280;18807;52.434;13.238;2023-04-20T14:03:16;101599.81;;;14.30;81.24
32330;BME280;18807;52.434;13.238;2023-04-20T14:10:51;101580.16;;;14.33;80.58
32330;BME280;18807;52.434;13.238;2023-04-20T14:18:27;101568.66;;;14.46;81.55
32330;BME280;18807;52.434;13.238;2023-04-20T14:26:02;101567.13;;;14.69;82.46
32330;BME280;18807;52.434;13.238;2023-04-20T14:33:38;101568.91;;;14.65;80.82
32330;BME280;18807;52.434;13.238;2023-04-20T14:41:14;101558.22;;;14.70;77.03
32330;BME280;18807;52.434;13.238;2023-04-20T14:48:49;101553.78;;;14.76;77.52
32330;BME280;18807;52.434;13.238;2023-04-20T14:56:23;101538.75;;;14.95;77.72
32330;BME280;18807;52.434;13.238;2023-04-20T15:03:59;101531.75;;;15.16;74.83
32330;BME280;18807;52.434;13.238;2023-04-20T15:11:34;101528.28;;;15.29;74.95
32330;BME280;18807;52.434;13.238;2023-04-20T15:19:11;101524.81;;;15.39;75.09
32330;BME280;18807;52.434;13.238;2023-04-20T15:26:45;101515.25;;;15.86;73.74
32330;BME280;18807;52.434;13.238;2023-04-20T15:34:20;101525.94;;;15.74;68.67
32330;BME280;18807;52.434;13.238;2023-04-20T15:41:54;101512.41;;;15.62;69.16
32330;BME280;18807;52.434;13.238;2023-04-20T15:49:30;101518.78;;;15.75;68.26
32330;BME280;18807;52.434;13.238;2023-04-20T15:57:07;101514.28;;;15.78;68.34
32330;BME280;18807;52.434;13.238;2023-04-20T16:04:42;101521.47;;;15.76;64.76
32330;BME280;18807;52.434;13.238;2023-04-20T16:12:17;101507.91;;;15.61;67.06
32330;BME280;18807;52.434;13.238;2023-04-20T16:19:54;101517.75;;;15.58;70.00
32330;BME280;18807;52.434;13.238;2023-04-20T16:27:28;101508.81;;;15.62;69.98
32330;BME280;18807;52.434;13.238;2023-04-20T16:35:05;101520.47;;;15.62;68.10
32330;BME280;18807;52.434;13.238;2023-04-20T16:42:39;101514.13;;;15.51;68.87
32330;BME280;18807;52.434;13.238;2023-04-20T16:50:14;101515.91;;;15.51;70.15
32330;BME280;18807;52.434;13.238;2023-04-20T16:57:51;101513.19;;;15.46;72.01
32330;BME280;18807;52.434;13.238;2023-04-20T17:05:32;101506.00;;;15.42;73.42
32330;BME280;18807;52.434;13.238;2023-04-20T17:13:13;101508.56;;;15.30;74.89
32330;BME280;18807;52.434;13.238;2023-04-20T17:20:48;101513.00;;;15.28;74.51
32330;BME280;18807;52.434;13.238;2023-04-20T17:28:22;101517.50;;;15.25;74.26
32330;BME280;18807;52.434;13.238;2023-04-20T17:35:57;101523.72;;;15.22;73.76
32330;BME280;18807;52.434;13.238;2023-04-20T17:43:31;101522.84;;;15.22;71.85
32330;BME280;18807;52.434;13.238;2023-04-20T17:51:12;101533.44;;;15.04;73.97
32330;BME280;18807;52.434;13.238;2023-04-20T17:58:46;101537.75;;;14.87;75.61
32330;BME280;18807;52.434;13.238;2023-04-20T18:06:21;101535.81;;;14.74;76.38
32330;BME280;18807;52.434;13.238;2023-04-20T18:13:55;101538.25;;;14.51;78.70
32330;BME280;18807;52.434;13.238;2023-04-20T18:21:31;101546.19;;;14.39;79.73
32330;BME280;18807;52.434;13.238;2023-04-20T18:29:06;101554.06;;;14.24;81.24
32330;BME280;18807;52.434;13.238;2023-04-20T18:36:41;101555.66;;;14.12;83.03
32330;BME280;18807;52.434;13.238;2023-04-20T18:44:15;101558.22;;;14.02;84.39
32330;BME280;18807;52.434;13.238;2023-04-20T18:51:54;101560.78;;;13.95;85.64
32330;BME280;18807;52.434;13.238;2023-04-20T18:59:27;101563.38;;;13.87;86.96
32330;BME280;18807;52.434;13.238;2023-04-20T19:07:03;101557.91;;;13.81;87.77
32330;BME280;18807;52.434;13.238;2023-04-20T19:14:37;101568.47;;;13.69;89.11
32330;BME280;18807;52.434;13.238;2023-04-20T19:22:12;101558.47;;;13.59;90.20
32330;BME280;18807;52.434;13.238;2023-04-20T19:29:46;101559.16;;;13.46;91.92
32330;BME280;18807;52.434;13.238;2023-04-20T19:37:22;101554.59;;;13.39;92.26
32330;BME280;18807;52.434;13.238;2023-04-20T19:44:55;101570.63;;;13.36;92.00
32330;BME280;18807;52.434;13.238;2023-04-20T19:52:31;101572.31;;;13.30;92.46
32330;BME280;18807;52.434;13.238;2023-04-20T20:00:07;101557.81;;;13.20;93.19
32330;BME280;18807;52.434;13.238;2023-04-20T20:07:43;101560.44;;;13.16;93.30
32330;BME280;18807;52.434;13.238;2023-04-20T20:15:17;101565.66;;;13.07;94.05
32330;BME280;18807;52.434;13.238;2023-04-20T20:22:52;101566.34;;;12.98;94.66
32330;BME280;18807;52.434;13.238;2023-04-20T20:30:26;101555.41;;;12.88;95.61
32330;BME280;18807;52.434;13.238;2023-04-20T20:38:02;101565.22;;;12.86;95.76
32330;BME280;18807;52.434;13.238;2023-04-20T20:45:39;101567.81;;;12.81;96.25
32330;BME280;18807;52.434;13.238;2023-04-20T20:53:15;101566.81;;;12.76;96.76
32330;BME280;18807;52.434;13.238;2023-04-20T21:00:51;101569.38;;;12.70;97.73
32330;BME280;18807;52.434;13.238;2023-04-20T21:08:27;101552.28;;;12.64;98.37
32330;BME280;18807;52.434;13.238;2023-04-20T21:16:01;101551.22;;;12.56;99.55
32330;BME280;18807;52.434;13.238;2023-04-20T21:23:36;101560.19;;;12.56;99.65
32330;BME280;18807;52.434;13.238;2023-04-20T21:31:10;101553.91;;;12.56;99.88
32330;BME280;18807;52.434;13.238;2023-04-20T21:38:46;101569.00;;;12.52;100.00
32330;BME280;18807;52.434;13.238;2023-04-20T21:46:20;101563.56;;;12.46;100.00
32330;BME280;18807;52.434;13.238;2023-04-20T21:53:56;101560.81;;;12.43;100.00
32330;BME280;18807;52.434;13.238;2023-04-20T22:01:30;101566.94;;;12.38;100.00
32330;BME280;18807;52.434;13.238;2023-04-20T22:09:05;101570.44;;;12.34;100.00
32330;BME280;18807;52.434;13.238;2023-04-20T22:16:39;101571.25;;;12.30;100.00
32330;BME280;18807;52.434;13.238;2023-04-20T22:24:15;101578.22;;;12.22;100.00
32330;BME280;18807;52.434;13.238;2023-04-20T22:31:49;101577.09;;;12.12;100.00
32330;BME280;18807;52.434;13.238;2023-04-20T22:39:24;101577.91;;;12.08;100.00
32330;BME280;18807;52.434;13.238;2023-04-20T22:46:59;101584.06;;;12.04;100.00
32330;BME280;18807;52.434;13.238;2023-04-20T22:54:35;101573.38;;;12.04;100.00
32330;BME280;18807;52.434;13.238;2023-04-20T23:02:09;101571.50;;;12.00;100.00
32330;BME280;18807;52.434;13.238;2023-04-20T23:09:44;101585.63;;;11.94;100.00
32330;BME280;18807;52.434;13.238;2023-04-20T23:17:19;101574.16;;;11.98;100.00
32330;BME280;18807;52.434;13.238;2023-04-20T23:24:55;101581.13;;;11.92;100.00
32330;BME280;18807;52.434;13.238;2023-04-20T23:32:29;101572.94;;;11.86;100.00
32330;BME280;18807;52.434;13.238;2023-04-20T23:40:07;101572.94;;;11.86;100.00
32330;BME280;18807;52.434;13.238;2023-04-20T23:47:41;101567.00;;;11.99;99.60
32330;BME280;18807;52.434;13.238;2023-04-20T23:55:17;101575.22;;;12.08;97.30
